createdAt,value
2022-09-05T00:02:04.338Z,3.03
2022-09-05T00:05:08.121Z,3.17
2022-09-05T00:08:12.320Z,3.90
2022-09-05T00:11:46.501Z,2.92
2022-09-05T00:15:17.087Z,2.95
2022-09-05T00:22:36.153Z,3.28
2022-09-05T00:24:27.646Z,3.20
2022-09-05T00:25:31.368Z,4.20
2022-09-05T00:28:25.652Z,8.68
2022-09-05T00:31:53.695Z,6.03
2022-09-05T00:35:03.416Z,5.43
2022-09-05T00:37:52.001Z,7.15
2022-09-05T00:40:45.381Z,6.65
2022-09-05T00:43:33.642Z,8.70
2022-09-05T00:46:25.263Z,8.93
2022-09-05T00:49:52.482Z,9.77
2022-09-05T00:52:54.103Z,7.82
2022-09-05T00:56:21.751Z,7.38
2022-09-05T01:05:40.938Z,7.07
2022-09-05T01:09:08.563Z,8.52
2022-09-05T01:12:00.626Z,8.60
2022-09-05T01:15:22.532Z,8.48
2022-09-05T01:18:26.962Z,8.18
2022-09-05T01:21:48.099Z,7.80
2022-09-05T01:24:59.433Z,7.68
2022-09-05T01:28:46.154Z,7.50
2022-09-05T01:31:19.292Z,7.35
2022-09-05T01:34:23.024Z,7.50
2022-09-05T01:37:26.610Z,6.78
2022-09-05T01:41:17.985Z,7.22
2022-09-05T01:44:55.210Z,7.55
2022-09-05T01:47:54.472Z,6.63
2022-09-05T01:50:54.179Z,7.30
2022-09-05T01:53:46.756Z,6.40
2022-09-05T01:56:49.841Z,7.15
2022-09-05T01:59:45.970Z,7.93
2022-09-05T02:02:48.945Z,6.90
2022-09-05T02:05:55.506Z,6.63
2022-09-05T02:09:14.089Z,6.60
2022-09-05T02:12:15.286Z,6.10
2022-09-05T02:15:10.029Z,6.97
2022-09-05T02:18:02.619Z,6.05
2022-09-05T02:21:01.316Z,6.28
2022-09-05T02:24:01.772Z,6.43
2022-09-05T02:26:54.413Z,6.35
2022-09-05T02:29:58.837Z,6.90
2022-09-05T02:33:22.161Z,7.00
2022-09-05T02:36:25.237Z,6.90
2022-09-05T02:45:07.258Z,6.95
2022-09-05T02:45:19.430Z,7.43
2022-09-05T02:46:24.994Z,6.57
2022-09-05T02:52:43.816Z,7.30
2022-09-05T02:57:34.206Z,6.25
2022-09-05T02:57:35.085Z,8.23
2022-09-05T03:00:21.208Z,6.10
2022-09-05T03:03:43.338Z,6.45
2022-09-05T03:06:55.868Z,7.03
2022-09-05T03:09:55.335Z,6.68
2022-09-05T03:12:41.240Z,6.13
2022-09-05T03:15:54.414Z,7.60
2022-09-05T03:18:46.845Z,6.90
2022-09-05T03:22:07.914Z,6.90
2022-09-05T03:25:20.527Z,8.05
2022-09-05T03:28:09.154Z,6.22
2022-09-05T03:31:07.416Z,7.28
2022-09-05T03:34:27.398Z,7.22
2022-09-05T03:37:44.345Z,6.28
2022-09-05T03:41:00.248Z,6.30
2022-09-05T03:43:49.154Z,6.72
2022-09-05T03:46:56.345Z,6.88
2022-09-05T03:54:17.140Z,6.53
2022-09-05T03:57:13.502Z,7.80
2022-09-05T03:57:15.451Z,7.00
2022-09-05T04:00:09.509Z,7.03
2022-09-05T04:08:06.829Z,6.70
2022-09-05T04:08:23.832Z,7.03
2022-09-05T04:09:50.501Z,8.27
2022-09-05T04:12:48.492Z,7.28
2022-09-05T04:15:59.758Z,6.60
2022-09-05T04:18:54.704Z,7.15
2022-09-05T04:21:49.089Z,7.78
2022-09-05T04:25:14.766Z,7.20
2022-09-05T04:28:29.377Z,7.75
2022-09-05T04:31:36.900Z,7.72
2022-09-05T04:34:31.123Z,7.35
2022-09-05T04:37:48.213Z,7.18
2022-09-05T04:40:51.005Z,8.27
2022-09-05T04:43:44.046Z,7.97
2022-09-05T04:46:48.422Z,8.95
2022-09-05T04:49:46.670Z,7.97
2022-09-05T04:52:58.538Z,8.07
2022-09-05T04:55:51.243Z,7.30
2022-09-05T05:00:07.587Z,5.20
2022-09-05T05:06:01.272Z,6.15
2022-09-05T05:06:18.133Z,5.53
2022-09-05T05:08:38.202Z,6.25
2022-09-05T05:17:12.884Z,5.22
2022-09-05T05:18:09.964Z,5.45
2022-09-05T05:18:53.268Z,5.72
2022-09-05T05:21:31.471Z,5.95
2022-09-05T05:24:28.033Z,5.70
2022-09-05T05:27:26.229Z,5.53
2022-09-05T05:30:23.078Z,6.47
2022-09-05T05:33:31.786Z,7.18
2022-09-05T05:36:26.688Z,5.85
2022-09-05T05:39:25.991Z,6.22
2022-09-05T05:42:26.162Z,5.70
2022-09-05T05:45:30.056Z,6.47
2022-09-05T05:48:19.423Z,6.38
2022-09-05T05:51:13.736Z,5.65
2022-09-05T05:54:26.828Z,6.35
2022-09-05T05:57:25.575Z,5.78
2022-09-05T06:00:29.276Z,6.20
2022-09-05T06:03:57.552Z,6.65
2022-09-05T06:06:55.475Z,6.25
2022-09-05T06:14:52.691Z,6.95
2022-09-05T06:15:06.063Z,5.35
2022-09-05T06:16:50.338Z,5.03
2022-09-05T06:22:06.806Z,5.45
2022-09-05T06:23:39.974Z,5.53
2022-09-05T06:26:51.213Z,5.13
2022-09-05T06:29:58.478Z,6.00
2022-09-05T06:33:07.361Z,6.32
2022-09-05T06:36:07.131Z,5.72
2022-09-05T06:38:58.824Z,5.70
2022-09-05T06:42:06.369Z,5.75
2022-09-05T06:45:10.747Z,5.72
2022-09-05T06:49:28.986Z,6.05
2022-09-05T06:52:53.335Z,5.65
2022-09-05T06:55:54.480Z,6.00
2022-09-05T06:59:09.470Z,6.25
2022-09-05T07:02:58.382Z,7.43
2022-09-05T07:05:58.466Z,5.97
2022-09-05T07:08:54.096Z,6.25
2022-09-05T07:12:09.908Z,6.53
2022-09-05T07:15:32.586Z,7.03
2022-09-05T07:18:40.932Z,6.10
2022-09-05T07:21:40.711Z,6.35
2022-09-05T07:24:55.071Z,5.53
2022-09-05T07:28:28.344Z,6.50
2022-09-05T07:31:27.431Z,6.57
2022-09-05T07:34:29.474Z,7.47
2022-09-05T07:37:25.116Z,7.60
2022-09-05T07:40:25.866Z,8.20
2022-09-05T07:43:19.063Z,6.82
2022-09-05T07:46:26.469Z,6.25
2022-09-05T07:49:27.219Z,5.95
2022-09-05T07:56:46.722Z,5.78
2022-09-05T07:57:01.603Z,5.32
2022-09-05T07:58:53.385Z,5.13
2022-09-05T08:01:47.156Z,4.57
2022-09-05T08:04:39.388Z,4.43
2022-09-05T08:07:48.801Z,5.05
2022-09-05T08:11:25.319Z,4.90
2022-09-05T08:14:43.132Z,4.57
2022-09-05T08:17:21.171Z,5.32
2022-09-05T08:20:44.201Z,5.10
2022-09-05T08:23:45.629Z,4.75
2022-09-05T08:26:47.507Z,4.45
2022-09-05T08:29:41.330Z,3.75
2022-09-05T08:33:11.351Z,4.57
2022-09-05T08:36:04.414Z,4.85
2022-09-05T08:38:51.065Z,4.35
2022-09-05T08:41:51.089Z,4.40
2022-09-05T08:46:45.796Z,4.75
2022-09-05T08:48:22.128Z,5.28
2022-09-05T08:51:41.832Z,5.03
2022-09-05T08:55:11.200Z,5.72
2022-09-05T08:58:16.171Z,4.80
2022-09-05T09:02:11.610Z,4.95
2022-09-05T09:05:07.617Z,4.93
2022-09-05T09:08:23.193Z,4.13
2022-09-05T09:11:27.764Z,3.53
2022-09-05T09:14:29.513Z,3.92
2022-09-05T09:17:45.506Z,4.18
2022-09-05T09:20:47.041Z,4.05
2022-09-05T09:23:41.901Z,3.97
2022-09-05T09:26:35.906Z,3.42
2022-09-05T09:29:23.845Z,3.30
2022-09-05T09:32:18.173Z,3.72
2022-09-05T09:35:25.433Z,3.58
2022-09-05T09:38:43.353Z,3.33
2022-09-05T09:41:45.510Z,3.25
2022-09-05T09:45:22.554Z,3.67
2022-09-05T09:48:38.642Z,3.25
2022-09-05T09:51:55.814Z,4.38
2022-09-05T09:54:44.484Z,3.28
2022-09-05T09:57:49.445Z,3.55
2022-09-05T10:01:21.549Z,3.90
2022-09-05T10:10:37.856Z,4.03
2022-09-05T10:10:57.451Z,3.92
2022-09-05T10:11:55.818Z,3.17
2022-09-05T10:15:30.445Z,4.45
2022-09-05T10:18:39.432Z,3.97
2022-09-05T10:25:38.864Z,4.18
2022-09-05T10:28:31.286Z,4.15
2022-09-05T10:35:04.547Z,4.63
2022-09-05T10:35:17.979Z,4.57
2022-09-05T10:37:44.584Z,4.38
2022-09-05T10:40:45.451Z,4.82
2022-09-05T10:43:52.165Z,3.80
2022-09-05T10:47:07.231Z,4.88
2022-09-05T10:50:26.391Z,4.75
2022-09-05T10:53:39.510Z,3.72
2022-09-05T10:56:36.146Z,4.25
2022-09-05T11:02:21.417Z,5.32
2022-09-05T11:02:45.760Z,4.25
2022-09-05T11:05:38.439Z,4.30
2022-09-05T11:08:39.544Z,4.40
2022-09-05T11:11:33.885Z,4.22
2022-09-05T11:14:35.936Z,4.85
2022-09-05T11:17:48.652Z,5.28
2022-09-05T11:21:04.811Z,4.90
2022-09-05T11:24:14.400Z,4.30
2022-09-05T11:27:27.536Z,5.40
2022-09-05T11:30:30.181Z,6.27
2022-09-05T11:37:32.120Z,5.45
2022-09-05T11:39:56.167Z,4.35
2022-09-05T11:40:32.957Z,4.93
2022-09-05T11:43:39.786Z,4.72
2022-09-05T11:46:33.459Z,3.80
2022-09-05T11:49:32.506Z,5.20
2022-09-05T11:52:57.374Z,3.88
2022-09-05T11:55:47.113Z,4.07
2022-09-05T11:58:48.516Z,4.40
2022-09-05T12:01:44.827Z,4.13
2022-09-05T12:05:47.380Z,4.50
2022-09-05T12:08:40.718Z,3.90
2022-09-05T12:11:52.193Z,3.63
2022-09-05T12:15:11.882Z,3.75
2022-09-05T12:18:30.590Z,3.72
2022-09-05T12:21:38.415Z,4.38
2022-09-05T12:25:26.539Z,3.38
2022-09-05T12:27:59.960Z,4.32
2022-09-05T12:32:36.354Z,3.83
2022-09-05T12:36:12.957Z,4.35
2022-09-05T12:40:44.519Z,4.60
2022-09-05T12:42:10.429Z,4.22
2022-09-05T12:45:09.723Z,4.22
2022-09-05T12:48:39.372Z,5.25
2022-09-05T12:51:45.995Z,4.53
2022-09-05T12:54:57.115Z,4.00
2022-09-05T13:00:58.586Z,4.20
2022-09-05T13:03:01.187Z,4.40
2022-09-05T13:04:29.969Z,4.47
2022-09-05T13:07:27.737Z,4.07
2022-09-05T13:11:08.082Z,3.70
2022-09-05T13:15:02.796Z,4.00
2022-09-05T13:16:48.100Z,3.75
2022-09-05T13:19:50.995Z,3.53
2022-09-05T13:22:38.470Z,3.70
2022-09-05T13:25:37.109Z,4.00
2022-09-05T13:28:27.012Z,3.00
2022-09-05T13:37:54.078Z,3.10
2022-09-05T13:38:01.419Z,3.88
2022-09-05T13:38:13.697Z,3.63
2022-09-05T13:41:00.112Z,3.47
2022-09-05T13:43:46.444Z,3.42
2022-09-05T13:46:41.545Z,3.67
2022-09-05T13:49:40.392Z,3.03
2022-09-05T13:52:41.557Z,2.70
2022-09-05T13:55:44.881Z,3.25
2022-09-05T13:58:57.379Z,3.05
2022-09-05T14:01:54.550Z,2.70
2022-09-05T14:05:30.553Z,2.70
2022-09-05T14:08:23.203Z,2.53
2022-09-05T14:11:45.104Z,3.00
2022-09-05T14:15:22.480Z,2.83
2022-09-05T14:19:06.229Z,2.85
2022-09-05T14:21:52.398Z,2.30
2022-09-05T14:24:46.944Z,2.78
2022-09-05T14:27:45.006Z,2.40
2022-09-05T14:35:15.051Z,2.92
2022-09-05T14:37:53.459Z,2.55
2022-09-05T14:38:07.860Z,2.85
2022-09-05T14:41:28.051Z,2.55
2022-09-05T14:44:37.888Z,2.80
2022-09-05T14:50:49.477Z,2.90
2022-09-05T14:53:59.667Z,2.78
2022-09-05T15:00:22.833Z,3.00
2022-09-05T15:02:46.362Z,2.70
2022-09-05T15:03:16.154Z,2.35
2022-09-05T15:06:21.062Z,2.80
2022-09-05T15:11:25.482Z,2.92
2022-09-05T15:12:39.610Z,2.90
2022-09-05T15:15:35.929Z,3.08
2022-09-05T15:18:29.420Z,3.28
2022-09-05T15:21:35.271Z,2.97
2022-09-05T15:24:30.203Z,2.55
2022-09-05T15:27:19.082Z,2.70
2022-09-05T15:30:06.547Z,2.85
2022-09-05T15:33:15.877Z,3.28
2022-09-05T15:36:05.110Z,2.90
2022-09-05T15:38:55.066Z,3.20
2022-09-05T15:41:43.517Z,3.13
2022-09-05T15:44:32.299Z,2.72
2022-09-05T15:47:24.491Z,2.55
2022-09-05T15:50:22.328Z,2.67
2022-09-05T15:53:24.273Z,2.97
2022-09-05T15:56:10.821Z,3.55
2022-09-05T15:59:00.542Z,2.97
2022-09-05T16:02:00.585Z,3.40
2022-09-05T16:09:42.337Z,3.13
2022-09-05T16:10:39.842Z,3.17
2022-09-05T16:15:39.442Z,3.05
2022-09-05T16:23:19.495Z,2.90
2022-09-05T16:23:34.733Z,3.10
2022-09-05T16:24:58.031Z,2.97
2022-09-05T16:28:01.350Z,2.53
2022-09-05T16:30:48.881Z,3.30
2022-09-05T16:33:35.394Z,3.72
2022-09-05T16:36:29.711Z,3.85
2022-09-05T16:39:20.622Z,3.70
2022-09-05T16:42:47.140Z,4.05
2022-09-05T16:45:52.803Z,4.55
2022-09-05T16:48:55.559Z,4.32
2022-09-05T16:51:43.261Z,4.57
2022-09-05T16:54:33.925Z,4.88
2022-09-05T16:57:22.837Z,5.25
2022-09-05T17:00:10.309Z,5.57
2022-09-05T17:03:28.360Z,5.03
2022-09-05T17:06:59.114Z,4.72
2022-09-05T17:09:46.100Z,4.32
2022-09-05T17:12:33.600Z,3.85
2022-09-05T17:15:35.995Z,3.55
2022-09-05T17:18:26.877Z,3.20
2022-09-05T17:21:43.508Z,3.10
2022-09-05T17:29:18.105Z,3.75
2022-09-05T17:29:32.594Z,3.30
2022-09-05T17:31:47.499Z,3.38
2022-09-05T17:34:03.362Z,4.05
2022-09-05T17:37:30.298Z,3.58
2022-09-05T17:40:48.169Z,3.80
2022-09-05T17:43:39.807Z,3.65
2022-09-05T17:46:29.096Z,3.72
2022-09-05T17:49:42.753Z,3.97
2022-09-05T17:52:29.155Z,3.45
2022-09-05T17:55:18.607Z,3.35
2022-09-05T17:58:49.132Z,2.72
2022-09-05T18:01:40.362Z,3.42
2022-09-05T18:04:50.806Z,2.83
2022-09-05T18:07:54.244Z,2.92
2022-09-05T18:14:24.417Z,2.88
2022-09-05T18:17:47.506Z,4.25
2022-09-05T18:20:44.019Z,3.90
2022-09-05T18:23:43.839Z,3.58
2022-09-05T18:26:41.013Z,3.47
2022-09-05T18:29:58.899Z,3.58
2022-09-05T18:34:03.300Z,4.30
2022-09-05T18:36:25.564Z,4.22
2022-09-05T18:39:37.165Z,4.30
2022-09-05T18:42:33.281Z,4.20
2022-09-05T18:45:28.275Z,4.07
2022-09-05T18:48:25.541Z,3.90
2022-09-05T18:51:22.072Z,3.80
2022-09-05T18:54:20.271Z,3.80
2022-09-05T18:57:31.178Z,4.35
2022-09-05T19:00:47.962Z,4.18
2022-09-05T19:03:41.751Z,5.63
2022-09-05T19:06:35.660Z,5.90
2022-09-05T19:09:28.809Z,5.10
2022-09-05T19:12:32.493Z,3.92
2022-09-05T19:15:25.088Z,5.05
2022-09-05T19:18:36.971Z,4.75
2022-09-05T19:21:33.457Z,4.05
2022-09-05T19:24:21.048Z,4.32
2022-09-05T19:28:01.524Z,4.55
2022-09-05T19:36:58.095Z,4.60
2022-09-05T19:37:03.297Z,4.90
2022-09-05T19:43:28.361Z,6.25
2022-09-05T19:47:34.262Z,5.57
2022-09-05T19:47:39.126Z,5.82
2022-09-05T19:49:31.334Z,6.00
2022-09-05T19:52:18.022Z,6.43
2022-09-05T19:55:37.545Z,6.68
2022-09-05T19:58:26.622Z,5.70
2022-09-05T20:01:18.222Z,6.88
2022-09-05T20:04:07.358Z,9.20
2022-09-05T20:06:58.788Z,8.23
2022-09-05T20:09:49.747Z,9.13
2022-09-05T20:12:39.879Z,8.68
2022-09-05T20:15:36.239Z,8.02
2022-09-05T20:18:24.506Z,6.00
2022-09-05T20:21:14.089Z,6.00
2022-09-05T20:24:00.513Z,6.63
2022-09-05T20:26:48.065Z,5.90
2022-09-05T20:29:55.826Z,6.15
2022-09-05T20:32:56.397Z,5.93
2022-09-05T20:43:07.829Z,6.20
2022-09-05T20:43:16.978Z,6.70
2022-09-05T20:43:27.820Z,6.28
2022-09-05T20:45:26.591Z,6.65
2022-09-05T20:54:07.813Z,7.53
2022-09-05T20:54:21.729Z,7.05
2022-09-05T20:54:43.919Z,6.78
2022-09-05T20:57:32.168Z,7.77
2022-09-05T21:00:25.291Z,7.50
2022-09-05T21:03:15.873Z,7.18
2022-09-05T21:06:20.006Z,8.30
2022-09-05T21:09:24.852Z,7.30
2022-09-05T21:12:22.721Z,7.88
2022-09-05T21:15:53.872Z,7.55
2022-09-05T21:18:42.957Z,7.10
2022-09-05T21:21:31.582Z,7.78
2022-09-05T21:24:24.263Z,6.65
2022-09-05T21:27:24.874Z,7.78
2022-09-05T21:30:29.404Z,7.45
2022-09-05T21:33:20.437Z,7.55
2022-09-05T21:36:12.433Z,7.90
2022-09-05T21:39:10.765Z,6.85
2022-09-05T21:42:30.714Z,7.28
2022-09-05T21:47:37.714Z,7.57
2022-09-05T21:48:15.521Z,8.60
2022-09-05T21:51:11.393Z,7.22
2022-09-05T21:58:13.046Z,6.82
2022-09-05T21:59:20.625Z,6.03
2022-09-05T22:00:25.746Z,6.57
2022-09-05T22:03:18.240Z,5.60
2022-09-05T22:06:09.778Z,6.18
2022-09-05T22:09:12.889Z,5.40
2022-09-05T22:12:00.611Z,6.57
2022-09-05T22:14:52.430Z,5.75
2022-09-05T22:17:43.295Z,3.97
2022-09-05T22:20:29.922Z,5.15
2022-09-05T22:23:16.209Z,4.25
2022-09-05T22:26:06.950Z,3.90
2022-09-05T22:28:53.185Z,5.40
2022-09-05T22:31:39.534Z,4.80
2022-09-05T22:34:28.129Z,5.05
2022-09-05T22:37:17.749Z,4.82
2022-09-05T22:40:05.205Z,4.43
2022-09-05T22:43:04.677Z,4.75
2022-09-05T22:45:55.412Z,4.43
2022-09-05T22:48:41.456Z,5.18
2022-09-05T22:51:27.458Z,6.07
2022-09-05T22:54:13.154Z,7.70
2022-09-05T22:56:59.093Z,6.10
2022-09-05T22:59:45.249Z,7.10
2022-09-05T23:02:31.098Z,7.95
2022-09-05T23:05:17.719Z,6.85
2022-09-05T23:08:05.876Z,8.10
2022-09-05T23:10:51.665Z,7.72
2022-09-05T23:13:40.148Z,8.35
2022-09-05T23:16:26.548Z,8.65
2022-09-05T23:19:12.422Z,8.63
2022-09-05T23:21:58.307Z,8.35
2022-09-05T23:24:44.157Z,8.68
2022-09-05T23:27:34.667Z,8.48
2022-09-05T23:30:21.048Z,8.27
2022-09-05T23:33:08.915Z,8.02
2022-09-05T23:36:10.347Z,9.02
2022-09-05T23:38:56.352Z,9.38
2022-09-05T23:41:45.761Z,8.60
2022-09-05T23:44:35.096Z,9.38
2022-09-05T23:47:21.053Z,8.70
2022-09-05T23:50:07.333Z,8.43
2022-09-05T23:52:53.600Z,8.85
2022-09-05T23:55:41.624Z,8.07
2022-09-05T23:58:31.223Z,9.45
